createdAt,value
2023-08-22T00:01:29.022Z,52.13
2023-08-22T00:03:58.903Z,52.40
2023-08-22T00:06:26.977Z,52.14
2023-08-22T00:08:55.185Z,52.63
2023-08-22T00:11:23.073Z,52.72
2023-08-22T00:13:51.227Z,52.93
2023-08-22T00:16:19.502Z,52.89
2023-08-22T00:18:47.437Z,52.48
2023-08-22T00:21:16.685Z,52.89
2023-08-22T00:23:44.520Z,52.95
2023-08-22T00:26:12.428Z,52.57
2023-08-22T00:28:40.376Z,52.57
2023-08-22T00:31:08.232Z,52.56
2023-08-22T00:33:36.178Z,53.08
2023-08-22T00:36:04.463Z,53.00
2023-08-22T00:38:33.967Z,52.80
2023-08-22T00:41:01.835Z,52.74
2023-08-22T00:43:29.664Z,53.21
2023-08-22T00:45:57.539Z,53.35
2023-08-22T00:48:25.669Z,53.47
2023-08-22T00:50:54.047Z,53.17
2023-08-22T00:53:22.153Z,53.12
2023-08-22T00:55:51.740Z,53.28
2023-08-22T00:58:19.621Z,53.61
2023-08-22T01:00:47.988Z,53.36
2023-08-22T01:03:18.693Z,53.39
2023-08-22T01:05:55.037Z,53.74
2023-08-22T01:08:31.321Z,53.51
2023-08-22T01:11:04.750Z,53.28
2023-08-22T01:13:35.474Z,53.68
2023-08-22T01:16:04.071Z,53.43
2023-08-22T01:18:34.205Z,53.78
2023-08-22T01:21:06.743Z,54.00
2023-08-22T01:23:36.006Z,54.17
2023-08-22T01:26:04.020Z,54.08
2023-08-22T01:28:38.570Z,54.31
2023-08-22T01:31:12.698Z,54.47
2023-08-22T01:33:47.976Z,54.39
2023-08-22T01:36:18.657Z,54.70
2023-08-22T01:38:51.556Z,54.77
2023-08-22T01:41:20.161Z,54.62
2023-08-22T01:43:48.182Z,54.62
2023-08-22T01:46:16.060Z,54.64
2023-08-22T01:48:43.920Z,54.57
2023-08-22T01:51:12.027Z,54.69
2023-08-22T01:53:39.850Z,54.99
2023-08-22T01:56:09.060Z,54.65
2023-08-22T01:58:36.872Z,55.14
2023-08-22T02:01:10.258Z,55.18
2023-08-22T02:03:38.365Z,54.95
2023-08-22T02:06:06.869Z,55.20
2023-08-22T02:08:34.974Z,55.39
2023-08-22T02:11:03.076Z,55.07
2023-08-22T02:13:32.488Z,55.30
2023-08-22T02:16:00.365Z,55.43
2023-08-22T02:18:28.504Z,55.37
2023-08-22T02:20:57.805Z,55.36
2023-08-22T02:23:27.772Z,55.25
2023-08-22T02:25:56.002Z,55.40
2023-08-22T02:28:23.794Z,55.39
2023-08-22T02:30:57.484Z,55.64
2023-08-22T02:33:25.955Z,55.40
2023-08-22T02:35:54.273Z,55.79
2023-08-22T02:38:22.121Z,55.55
2023-08-22T02:40:49.946Z,55.34
2023-08-22T02:43:18.756Z,55.69
2023-08-22T02:45:46.820Z,55.53
2023-08-22T02:48:17.766Z,55.71
2023-08-22T02:50:45.927Z,55.62
2023-08-22T02:53:16.382Z,55.49
2023-08-22T02:55:44.305Z,56.04
2023-08-22T02:58:12.124Z,55.75
2023-08-22T03:00:40.257Z,55.70
2023-08-22T03:03:08.744Z,56.12
2023-08-22T03:05:38.379Z,55.87
2023-08-22T03:08:06.858Z,56.02
2023-08-22T03:10:34.676Z,56.21
2023-08-22T03:13:02.593Z,56.03
2023-08-22T03:15:30.452Z,56.29
2023-08-22T03:17:58.337Z,56.00
2023-08-22T03:20:26.176Z,55.98
2023-08-22T03:22:55.443Z,56.10
2023-08-22T03:25:23.266Z,56.19
2023-08-22T03:27:51.140Z,56.46
2023-08-22T03:30:19.022Z,56.59
2023-08-22T03:32:46.833Z,56.14
2023-08-22T03:35:14.674Z,56.42
2023-08-22T03:37:43.141Z,56.25
2023-08-22T03:40:13.472Z,56.64
2023-08-22T03:42:42.076Z,56.41
2023-08-22T03:45:10.569Z,56.65
2023-08-22T03:47:38.595Z,56.27
2023-08-22T03:50:07.646Z,56.40
2023-08-22T03:52:35.474Z,56.45
2023-08-22T03:55:03.274Z,56.66
2023-08-22T03:57:32.460Z,56.71
2023-08-22T04:00:00.261Z,56.79
2023-08-22T04:02:28.149Z,56.67
2023-08-22T04:04:58.998Z,56.92
2023-08-22T04:07:27.079Z,56.93
2023-08-22T04:09:54.898Z,56.69
2023-08-22T04:12:22.798Z,56.94
2023-08-22T04:14:52.480Z,56.59
2023-08-22T04:17:20.314Z,56.79
2023-08-22T04:19:48.277Z,57.03
2023-08-22T04:22:16.400Z,56.63
2023-08-22T04:24:44.204Z,57.10
2023-08-22T04:27:12.519Z,56.80
2023-08-22T04:29:40.655Z,57.04
2023-08-22T04:32:10.025Z,56.85
2023-08-22T04:34:37.836Z,57.12
2023-08-22T04:37:05.854Z,56.90
2023-08-22T04:39:33.767Z,56.76
2023-08-22T04:42:01.688Z,56.86
2023-08-22T04:44:29.520Z,56.80
2023-08-22T04:46:57.297Z,56.72
2023-08-22T04:49:27.143Z,56.96
2023-08-22T04:51:54.969Z,56.83
2023-08-22T04:54:22.802Z,56.83
2023-08-22T04:56:50.798Z,56.79
2023-08-22T04:59:18.695Z,57.12
2023-08-22T05:01:46.534Z,56.93
2023-08-22T05:04:14.429Z,56.90
2023-08-22T05:06:43.607Z,57.02
2023-08-22T05:09:11.757Z,57.34
2023-08-22T05:11:40.879Z,57.17
2023-08-22T05:14:09.085Z,57.22
2023-08-22T05:16:37.263Z,57.11
2023-08-22T05:19:05.355Z,57.13
2023-08-22T05:21:33.186Z,57.21
2023-08-22T05:24:02.461Z,57.46
2023-08-22T05:26:30.317Z,57.21
2023-08-22T05:28:58.154Z,57.46
2023-08-22T05:31:27.488Z,57.50
2023-08-22T05:33:55.647Z,57.42
2023-08-22T05:36:23.638Z,57.41
2023-08-22T05:38:51.471Z,57.21
2023-08-22T05:41:20.938Z,57.33
2023-08-22T05:43:48.883Z,57.36
2023-08-22T05:46:16.726Z,57.67
2023-08-22T05:48:44.538Z,57.55
2023-08-22T05:51:12.361Z,57.42
2023-08-22T05:53:40.176Z,57.54
2023-08-22T05:56:07.991Z,57.64
2023-08-22T05:58:37.321Z,57.50
2023-08-22T06:01:10.686Z,57.70
2023-08-22T06:03:38.657Z,57.80
2023-08-22T06:06:07.507Z,57.61
2023-08-22T06:08:35.577Z,57.56
2023-08-22T06:11:03.572Z,57.59
2023-08-22T06:13:31.499Z,57.60
2023-08-22T06:16:01.159Z,57.22
2023-08-22T06:18:29.201Z,57.48
2023-08-22T06:21:00.290Z,57.34
2023-08-22T06:23:28.600Z,57.59
2023-08-22T06:25:56.381Z,57.40
2023-08-22T06:28:24.237Z,57.32
2023-08-22T06:30:52.242Z,57.37
2023-08-22T06:33:21.454Z,57.27
2023-08-22T06:35:49.505Z,57.27
2023-08-22T06:38:17.372Z,57.13
2023-08-22T06:40:45.301Z,57.19
2023-08-22T06:43:13.950Z,57.56
2023-08-22T06:45:41.955Z,57.21
2023-08-22T06:48:10.149Z,57.20
2023-08-22T06:50:39.513Z,57.49
2023-08-22T06:53:07.487Z,57.41
2023-08-22T06:55:35.528Z,57.34
2023-08-22T06:58:03.345Z,57.55
2023-08-22T07:00:31.352Z,57.52
2023-08-22T07:02:59.386Z,57.55
2023-08-22T07:05:27.379Z,57.50
2023-08-22T07:07:56.600Z,57.51
2023-08-22T07:10:24.712Z,57.71
2023-08-22T07:12:52.526Z,57.42
2023-08-22T07:15:20.786Z,57.39
2023-08-22T07:17:48.940Z,57.48
2023-08-22T07:20:17.079Z,57.36
2023-08-22T07:22:45.193Z,57.31
2023-08-22T07:25:14.738Z,57.24
2023-08-22T07:27:42.877Z,57.37
2023-08-22T07:30:11.703Z,57.49
2023-08-22T07:32:39.915Z,57.22
2023-08-22T07:35:09.381Z,57.20
2023-08-22T07:37:37.257Z,57.49
2023-08-22T07:40:07.481Z,57.23
2023-08-22T07:42:36.883Z,57.18
2023-08-22T07:45:06.112Z,57.43
2023-08-22T07:47:34.160Z,57.17
2023-08-22T07:50:02.037Z,57.22
2023-08-22T07:52:29.826Z,56.88
2023-08-22T07:54:57.630Z,56.88
2023-08-22T07:57:25.687Z,56.97
2023-08-22T07:59:55.168Z,57.03
2023-08-22T08:02:23.158Z,56.82
2023-08-22T08:04:51.071Z,57.13
2023-08-22T08:07:18.883Z,57.13
2023-08-22T08:09:46.836Z,57.12
2023-08-22T08:12:14.667Z,57.18
2023-08-22T08:14:42.484Z,57.24
2023-08-22T08:17:11.778Z,57.07
2023-08-22T08:19:40.193Z,57.21
2023-08-22T08:22:08.118Z,57.10
2023-08-22T08:24:36.373Z,57.29
2023-08-22T08:27:04.216Z,57.26
2023-08-22T08:29:32.236Z,57.21
2023-08-22T08:32:00.073Z,57.37
2023-08-22T08:34:29.502Z,56.93
2023-08-22T08:36:58.730Z,57.25
2023-08-22T08:39:26.571Z,56.85
2023-08-22T08:42:00.575Z,56.90
2023-08-22T08:44:29.398Z,57.11
2023-08-22T08:46:58.348Z,57.06
2023-08-22T08:49:26.624Z,57.13
2023-08-22T08:51:56.881Z,57.12
2023-08-22T08:54:26.271Z,56.81
2023-08-22T08:56:54.336Z,57.14
2023-08-22T08:59:22.214Z,56.92
2023-08-22T09:01:52.273Z,57.09
2023-08-22T09:04:20.305Z,57.00
2023-08-22T09:06:48.571Z,56.87
2023-08-22T09:09:18.345Z,56.93
2023-08-22T09:11:47.905Z,57.02
2023-08-22T09:14:20.891Z,57.08
2023-08-22T09:16:48.909Z,57.08
2023-08-22T09:19:16.934Z,57.37
2023-08-22T09:21:58.646Z,57.48
2023-08-22T09:24:28.529Z,57.38
2023-08-22T09:26:56.640Z,57.16
2023-08-22T09:29:29.578Z,57.29
2023-08-22T09:31:59.325Z,57.44
2023-08-22T09:34:27.475Z,57.39
2023-08-22T09:36:56.398Z,57.44
2023-08-22T09:39:25.707Z,57.47
2023-08-22T09:41:57.887Z,57.28
2023-08-22T09:44:27.019Z,57.19
2023-08-22T09:46:56.741Z,57.18
2023-08-22T09:49:25.198Z,57.60
2023-08-22T09:51:54.295Z,57.32
2023-08-22T09:54:24.434Z,57.58
2023-08-22T09:56:54.194Z,57.64
2023-08-22T09:59:22.391Z,57.53
2023-08-22T10:01:50.788Z,57.62
2023-08-22T10:04:20.453Z,57.51
2023-08-22T10:06:52.444Z,57.48
2023-08-22T10:09:22.526Z,57.44
2023-08-22T10:11:52.963Z,57.27
2023-08-22T10:14:28.549Z,57.66
2023-08-22T10:16:57.182Z,57.35
2023-08-22T10:19:26.418Z,57.07
2023-08-22T10:21:55.438Z,57.03
2023-08-22T10:24:34.751Z,57.53
2023-08-22T10:27:05.674Z,57.33
2023-08-22T10:29:37.919Z,57.19
2023-08-22T10:32:20.973Z,56.97
2023-08-22T10:35:27.252Z,57.38
2023-08-22T10:37:56.515Z,56.80
2023-08-22T10:40:30.932Z,57.12
2023-08-22T10:43:13.373Z,57.15
2023-08-22T10:45:45.049Z,57.00
2023-08-22T10:48:14.521Z,56.78
2023-08-22T10:50:44.131Z,56.84
2023-08-22T10:53:24.370Z,56.75
2023-08-22T10:55:53.129Z,56.63
2023-08-22T10:58:59.334Z,56.64
2023-08-22T11:01:28.932Z,56.76
2023-08-22T11:03:57.919Z,56.26
2023-08-22T11:06:26.253Z,56.25
2023-08-22T11:08:54.129Z,56.33
2023-08-22T11:11:22.322Z,56.56
2023-08-22T11:13:50.391Z,56.17
2023-08-22T11:16:20.071Z,56.17
2023-08-22T11:18:50.764Z,56.05
2023-08-22T11:21:18.814Z,55.51
2023-08-22T11:23:46.688Z,55.17
2023-08-22T11:26:14.727Z,55.48
2023-08-22T11:28:43.793Z,55.32
2023-08-22T11:31:16.422Z,55.14
2023-08-22T11:33:52.218Z,54.72
2023-08-22T11:36:26.802Z,54.80
2023-08-22T11:38:56.157Z,54.56
2023-08-22T11:41:24.371Z,54.04
2023-08-22T11:43:59.901Z,53.84
2023-08-22T11:46:28.355Z,54.02
2023-08-22T11:48:57.707Z,53.61
2023-08-22T11:51:25.594Z,53.48
2023-08-22T11:53:53.621Z,53.50
2023-08-22T11:56:22.041Z,53.89
2023-08-22T11:58:54.027Z,53.32
2023-08-22T12:01:23.517Z,52.95
2023-08-22T12:03:55.899Z,52.94
2023-08-22T12:06:25.184Z,52.16
2023-08-22T12:08:57.999Z,53.07
2023-08-22T12:11:26.977Z,53.07
2023-08-22T12:13:54.874Z,52.81
2023-08-22T12:16:22.835Z,52.62
2023-08-22T12:18:50.772Z,52.23
2023-08-22T12:21:18.630Z,51.75
2023-08-22T12:23:50.605Z,51.37
2023-08-22T12:26:18.482Z,51.37
2023-08-22T12:28:46.259Z,51.15
2023-08-22T12:31:14.128Z,50.88
2023-08-22T12:33:42.020Z,50.54
2023-08-22T12:36:10.134Z,50.70
2023-08-22T12:38:38.268Z,50.63
2023-08-22T12:41:08.762Z,50.43
2023-08-22T12:43:35.766Z,50.38
2023-08-22T12:46:03.665Z,49.94
2023-08-22T12:48:34.337Z,49.84
2023-08-22T12:51:02.253Z,49.53
2023-08-22T12:53:30.067Z,49.77
2023-08-22T12:55:58.063Z,49.22
2023-08-22T12:58:29.992Z,49.49
2023-08-22T13:00:57.857Z,50.25
2023-08-22T13:03:25.878Z,50.48
2023-08-22T13:05:53.946Z,50.17
2023-08-22T13:08:22.014Z,50.16
2023-08-22T13:10:50.893Z,49.66
2023-08-22T13:13:18.675Z,49.60
2023-08-22T13:15:47.883Z,50.37
2023-08-22T13:18:15.743Z,50.59
2023-08-22T13:20:43.648Z,50.75
2023-08-22T13:23:11.468Z,50.42
2023-08-22T13:25:39.321Z,50.18
2023-08-22T13:28:07.537Z,49.70
2023-08-22T13:30:35.683Z,49.89
2023-08-22T13:33:05.307Z,49.25
2023-08-22T13:35:33.129Z,48.63
2023-08-22T13:38:01.155Z,49.71
2023-08-22T13:40:31.361Z,49.04
2023-08-22T13:42:59.539Z,49.68
2023-08-22T13:45:27.564Z,49.18
2023-08-22T13:47:56.894Z,49.25
2023-08-22T13:50:26.475Z,48.95
2023-08-22T13:52:54.250Z,49.64
2023-08-22T13:55:22.052Z,48.96
2023-08-22T13:57:49.844Z,49.46
2023-08-22T14:00:18.803Z,49.53
2023-08-22T14:02:47.161Z,49.32
2023-08-22T14:05:15.023Z,49.36
2023-08-22T14:07:44.454Z,49.15
2023-08-22T14:10:12.643Z,49.18
2023-08-22T14:12:40.441Z,48.95
2023-08-22T14:15:09.217Z,49.23
2023-08-22T14:17:36.982Z,49.34
2023-08-22T14:20:05.727Z,49.87
2023-08-22T14:22:33.537Z,49.64
2023-08-22T14:25:04.379Z,48.86
2023-08-22T14:27:32.216Z,49.28
2023-08-22T14:30:00.102Z,49.27
2023-08-22T14:32:28.057Z,49.33
2023-08-22T14:34:56.209Z,48.26
2023-08-22T14:37:24.320Z,48.31
2023-08-22T14:39:52.948Z,48.92
2023-08-22T14:42:22.248Z,49.46
2023-08-22T14:44:50.134Z,49.43
2023-08-22T14:47:18.062Z,49.14
2023-08-22T14:49:46.093Z,49.12
2023-08-22T14:52:14.214Z,49.23
2023-08-22T14:54:41.974Z,48.84
2023-08-22T14:57:10.112Z,48.76
2023-08-22T14:59:39.287Z,49.69
2023-08-22T15:02:08.145Z,50.10
2023-08-22T15:04:36.054Z,49.48
2023-08-22T15:07:04.179Z,50.24
2023-08-22T15:09:32.031Z,50.25
2023-08-22T15:11:59.810Z,50.42
2023-08-22T15:14:29.090Z,50.38
2023-08-22T15:16:58.246Z,50.07
2023-08-22T15:19:26.415Z,50.63
2023-08-22T15:21:54.211Z,50.62
2023-08-22T15:24:22.153Z,50.04
2023-08-22T15:26:49.956Z,49.92
2023-08-22T15:29:17.758Z,49.93
2023-08-22T15:31:45.862Z,49.47
2023-08-22T15:34:15.724Z,49.79
2023-08-22T15:36:43.589Z,50.40
2023-08-22T15:39:11.676Z,49.26
2023-08-22T15:41:39.635Z,49.24
2023-08-22T15:44:07.477Z,49.29
2023-08-22T15:46:35.385Z,49.89
2023-08-22T15:49:03.283Z,49.08
2023-08-22T15:51:33.516Z,49.26
2023-08-22T15:54:03.083Z,49.75
2023-08-22T15:56:31.416Z,50.33
2023-08-22T15:58:59.226Z,50.39
2023-08-22T16:01:27.106Z,50.06
2023-08-22T16:03:55.057Z,49.66
2023-08-22T16:06:22.978Z,49.26
2023-08-22T16:08:52.147Z,49.25
2023-08-22T16:11:20.181Z,49.03
2023-08-22T16:13:50.301Z,48.93
2023-08-22T16:16:19.326Z,48.98
2023-08-22T16:18:47.182Z,48.94
2023-08-22T16:21:15.039Z,48.73
2023-08-22T16:23:42.865Z,49.05
2023-08-22T16:26:12.201Z,48.17
2023-08-22T16:28:40.842Z,47.98
2023-08-22T16:31:08.827Z,48.34
2023-08-22T16:33:38.002Z,47.96
2023-08-22T16:36:07.320Z,48.36
2023-08-22T16:38:35.167Z,48.22
2023-08-22T16:41:04.706Z,48.57
2023-08-22T16:43:33.957Z,47.91
2023-08-22T16:46:01.790Z,48.31
2023-08-22T16:48:30.019Z,48.38
2023-08-22T16:50:58.309Z,48.69
2023-08-22T16:53:27.610Z,48.73
2023-08-22T16:55:58.446Z,48.60
2023-08-22T16:58:26.534Z,48.70
2023-08-22T17:00:56.033Z,49.20
2023-08-22T17:03:23.942Z,50.01
2023-08-22T17:05:51.868Z,49.30
2023-08-22T17:08:19.656Z,49.27
2023-08-22T17:10:47.549Z,49.52
2023-08-22T17:13:15.421Z,49.48
2023-08-22T17:15:45.298Z,50.21
2023-08-22T17:18:15.394Z,49.88
2023-08-22T17:20:43.324Z,49.93
2023-08-22T17:23:11.205Z,50.10
2023-08-22T17:25:39.251Z,49.79
2023-08-22T17:28:07.955Z,49.96
2023-08-22T17:30:38.186Z,49.96
2023-08-22T17:33:06.802Z,49.83
2023-08-22T17:35:36.321Z,49.89
2023-08-22T17:38:04.399Z,50.08
2023-08-22T17:40:35.481Z,49.83
2023-08-22T17:43:04.698Z,49.81
2023-08-22T17:45:32.531Z,49.63
2023-08-22T17:48:00.393Z,49.74
2023-08-22T17:50:28.252Z,49.31
2023-08-22T17:52:57.465Z,49.35
2023-08-22T17:55:25.845Z,49.56
2023-08-22T17:57:53.709Z,49.61
2023-08-22T18:00:24.066Z,49.89
2023-08-22T18:02:52.285Z,50.45
2023-08-22T18:05:20.205Z,49.87
2023-08-22T18:07:48.305Z,49.56
2023-08-22T18:10:18.395Z,49.91
2023-08-22T18:12:46.200Z,49.96
2023-08-22T18:15:14.087Z,49.67
2023-08-22T18:17:42.435Z,50.02
2023-08-22T18:20:11.318Z,50.21
2023-08-22T18:22:40.096Z,50.24
2023-08-22T18:25:08.607Z,49.85
2023-08-22T18:27:38.938Z,50.26
2023-08-22T18:30:08.456Z,49.81
2023-08-22T18:32:36.282Z,49.94
2023-08-22T18:35:04.140Z,50.10
2023-08-22T18:37:32.014Z,50.16
2023-08-22T18:40:00.063Z,50.08
2023-08-22T18:42:29.260Z,50.30
2023-08-22T18:44:59.026Z,50.23
2023-08-22T18:47:26.928Z,50.51
2023-08-22T18:49:54.872Z,50.41
2023-08-22T18:52:22.722Z,50.42
2023-08-22T18:54:50.596Z,50.26
2023-08-22T18:57:18.479Z,50.44
2023-08-22T18:59:46.633Z,50.57
2023-08-22T19:02:15.809Z,50.82
2023-08-22T19:04:43.800Z,50.79
2023-08-22T19:07:11.713Z,50.69
2023-08-22T19:09:39.693Z,50.86
2023-08-22T19:12:08.030Z,50.98
2023-08-22T19:14:36.349Z,50.79
2023-08-22T19:17:04.162Z,50.97
2023-08-22T19:19:33.390Z,51.32
2023-08-22T19:22:01.246Z,50.89
2023-08-22T19:24:29.266Z,51.11
2023-08-22T19:26:57.553Z,51.39
2023-08-22T19:29:25.407Z,51.56
2023-08-22T19:32:10.375Z,51.19
2023-08-22T19:34:45.906Z,51.43
2023-08-22T19:37:13.688Z,51.66
2023-08-22T19:39:41.504Z,51.71
2023-08-22T19:42:09.397Z,51.37
2023-08-22T19:44:37.228Z,51.76
2023-08-22T19:47:05.615Z,51.63
2023-08-22T19:49:33.580Z,51.79
2023-08-22T19:52:02.774Z,52.06
2023-08-22T19:54:30.590Z,51.72
2023-08-22T19:56:58.390Z,51.68
2023-08-22T19:59:26.254Z,51.79
2023-08-22T20:01:56.267Z,51.87
2023-08-22T20:04:24.129Z,52.03
2023-08-22T20:06:52.156Z,52.04
2023-08-22T20:09:21.458Z,51.88
2023-08-22T20:11:50.376Z,52.27
2023-08-22T20:14:18.465Z,51.97
2023-08-22T20:16:46.364Z,52.13
2023-08-22T20:19:16.469Z,52.37
2023-08-22T20:21:44.326Z,52.00
2023-08-22T20:24:12.324Z,52.24
2023-08-22T20:26:42.378Z,52.29
2023-08-22T20:29:11.871Z,52.59
2023-08-22T20:31:40.063Z,52.70
2023-08-22T20:34:07.884Z,52.18
2023-08-22T20:36:35.688Z,52.29
2023-08-22T20:39:04.979Z,52.57
2023-08-22T20:41:32.915Z,52.70
2023-08-22T20:44:02.367Z,52.65
2023-08-22T20:46:30.229Z,52.49
2023-08-22T20:48:58.131Z,52.91
2023-08-22T20:51:26.015Z,52.97
2023-08-22T20:53:53.998Z,52.98
2023-08-22T20:56:21.915Z,52.64
2023-08-22T20:58:49.743Z,53.13
2023-08-22T21:01:18.950Z,52.98
2023-08-22T21:03:46.871Z,53.26
2023-08-22T21:06:15.737Z,53.50
2023-08-22T21:08:43.999Z,53.34
2023-08-22T21:11:11.864Z,53.44
2023-08-22T21:13:39.744Z,53.09
2023-08-22T21:16:07.546Z,53.30
2023-08-22T21:18:36.794Z,53.50
2023-08-22T21:21:04.643Z,53.43
2023-08-22T21:23:32.442Z,53.30
2023-08-22T21:26:00.339Z,53.35
2023-08-22T21:28:28.410Z,53.25
2023-08-22T21:30:56.541Z,53.70
2023-08-22T21:33:24.417Z,53.72
2023-08-22T21:35:53.618Z,53.58
2023-08-22T21:38:21.442Z,53.32
2023-08-22T21:40:49.931Z,53.59
2023-08-22T21:43:17.852Z,53.93
2023-08-22T21:45:46.492Z,53.63
2023-08-22T21:48:15.099Z,53.55
2023-08-22T21:50:43.248Z,53.59
2023-08-22T21:53:12.544Z,53.50
2023-08-22T21:55:40.386Z,53.71
2023-08-22T21:58:08.619Z,53.69
2023-08-22T22:00:37.134Z,53.85
2023-08-22T22:03:05.490Z,53.54
2023-08-22T22:05:33.555Z,53.38
2023-08-22T22:08:01.397Z,53.87
2023-08-22T22:10:30.946Z,53.79
2023-08-22T22:12:58.730Z,53.86
2023-08-22T22:15:26.732Z,54.00
2023-08-22T22:17:54.938Z,53.86
2023-08-22T22:20:23.251Z,53.71
2023-08-22T22:22:51.456Z,54.06
2023-08-22T22:25:19.349Z,54.06
2023-08-22T22:27:48.828Z,54.01
2023-08-22T22:30:16.821Z,53.98
2023-08-22T22:32:45.149Z,53.92
2023-08-22T22:35:13.487Z,53.94
2023-08-22T22:37:41.268Z,54.25
2023-08-22T22:40:10.116Z,54.32
2023-08-22T22:42:37.922Z,53.93
2023-08-22T22:45:08.638Z,54.05
2023-08-22T22:47:36.846Z,54.00
2023-08-22T22:50:04.992Z,54.08
2023-08-22T22:52:32.819Z,54.14
2023-08-22T22:55:00.916Z,54.14
2023-08-22T22:57:28.760Z,54.52
2023-08-22T22:59:56.706Z,54.27
2023-08-22T23:02:26.274Z,54.51
2023-08-22T23:04:54.440Z,54.29
2023-08-22T23:07:22.406Z,54.47
2023-08-22T23:09:50.252Z,54.75
2023-08-22T23:12:18.651Z,54.57
2023-08-22T23:14:46.677Z,54.64
2023-08-22T23:17:19.683Z,54.63
2023-08-22T23:19:48.860Z,54.75
2023-08-22T23:22:16.829Z,54.87
2023-08-22T23:24:44.853Z,54.79
2023-08-22T23:27:12.735Z,54.93
2023-08-22T23:29:40.551Z,54.67
2023-08-22T23:32:08.343Z,54.95
2023-08-22T23:34:36.173Z,54.88
2023-08-22T23:37:05.680Z,54.49
2023-08-22T23:39:33.496Z,54.94
2023-08-22T23:42:01.278Z,54.93
2023-08-22T23:44:29.551Z,54.75
2023-08-22T23:46:57.402Z,55.18
2023-08-22T23:49:25.257Z,54.77
2023-08-22T23:51:53.224Z,55.16
2023-08-22T23:54:22.592Z,54.92
2023-08-22T23:56:50.634Z,55.47
2023-08-22T23:59:18.527Z,55.17
